UAL6235 KIAH-KGRR
Flight info
| Callsign | UAL6235 |
|---|---|
| Flight time | 2h 10m |
| Altitude | 39000 |
| Route | INDIE8 TPAKK LIT J101 STL/N0422F350 J19 RBS KLROY LOGGR VIO |
| Aircraft | A20N/M-SDE2E3FGHIRWXY/LB1 |
Departure
| Time | 2026-05-05 21:56 |
|---|---|
| Airport | George Bush Intercontinental Airport (KIAH) |
Arrival
| Time | 2026-05-06 00:06 |
|---|---|
| Airport | Gerald R. Ford International Airport (KGRR) |
| Time | Latitude | Longitude | Altitude | Speed | Heading |
|---|---|---|---|---|---|
| 2026-05-05 21:33 | 29.98485 | -95.33473 | 100 ft | 0 kts | 298° |
| 2026-05-05 21:45 | 29.98480 | -95.33463 | 101 ft | 3 kts | 296° |
| 2026-05-05 21:45 | 29.98472 | -95.33442 | 99 ft | 3 kts | 286° |
| 2026-05-05 21:46 | 29.98468 | -95.33419 | 98 ft | 3 kts | 274° |
| 2026-05-05 21:46 | 29.98468 | -95.33396 | 98 ft | 3 kts | 260° |
| 2026-05-05 21:46 | 29.98471 | -95.33377 | 99 ft | 1 kts | 249° |
| 2026-05-05 21:46 | 29.98473 | -95.33372 | 98 ft | 0 kts | 249° |
| 2026-05-05 21:48 | 29.98470 | -95.33378 | 99 ft | 2 kts | 239° |
| 2026-05-05 21:48 | 29.98449 | -95.33386 | 100 ft | 6 kts | 201° |
| 2026-05-05 21:49 | 29.98396 | -95.33392 | 100 ft | 9 kts | 180° |
| 2026-05-05 21:49 | 29.98325 | -95.33393 | 100 ft | 11 kts | 181° |
| 2026-05-05 21:49 | 29.98246 | -95.33401 | 101 ft | 12 kts | 209° |
| 2026-05-05 21:49 | 29.98224 | -95.33489 | 102 ft | 13 kts | 271° |
| 2026-05-05 21:50 | 29.98225 | -95.33597 | 102 ft | 15 kts | 271° |
| 2026-05-05 21:50 | 29.98231 | -95.33721 | 99 ft | 17 kts | 274° |
| 2026-05-05 21:50 | 29.98239 | -95.33861 | 100 ft | 18 kts | 273° |
| 2026-05-05 21:50 | 29.98254 | -95.34011 | 101 ft | 20 kts | 288° |
| 2026-05-05 21:51 | 29.98303 | -95.34160 | 100 ft | 20 kts | 271° |
| 2026-05-05 21:51 | 29.98302 | -95.34321 | 100 ft | 19 kts | 269° |
| 2026-05-05 21:51 | 29.98313 | -95.34475 | 101 ft | 20 kts | 281° |
| 2026-05-05 21:51 | 29.98322 | -95.34630 | 101 ft | 20 kts | 270° |
| 2026-05-05 21:52 | 29.98322 | -95.34948 | 101 ft | 18 kts | 270° |
| 2026-05-05 21:52 | 29.98322 | -95.35094 | 101 ft | 17 kts | 270° |
| 2026-05-05 21:52 | 29.98337 | -95.35168 | 101 ft | 7 kts | 313° |
| 2026-05-05 21:53 | 29.98383 | -95.35203 | 102 ft | 9 kts | 328° |
| 2026-05-05 21:53 | 29.98447 | -95.35242 | 102 ft | 12 kts | 334° |
| 2026-05-05 21:53 | 29.98528 | -95.35291 | 102 ft | 15 kts | 331° |
| 2026-05-05 21:53 | 29.98623 | -95.35355 | 102 ft | 17 kts | 316° |
| 2026-05-05 21:54 | 29.98670 | -95.35477 | 103 ft | 17 kts | 309° |
| 2026-05-05 21:54 | 29.98764 | -95.35555 | 103 ft | 16 kts | 329° |
| 2026-05-05 21:54 | 29.98835 | -95.35647 | 104 ft | 12 kts | 267° |
| 2026-05-05 21:54 | 29.98805 | -95.35734 | 105 ft | 12 kts | 236° |
| 2026-05-05 21:55 | 29.98743 | -95.35753 | 105 ft | 11 kts | 159° |
| 2026-05-05 21:55 | 29.98722 | -95.35740 | 105 ft | 0 kts | 150° |
| 2026-05-05 21:55 | 29.98721 | -95.35740 | 105 ft | 5 kts | 150° |
| 2026-05-05 21:55 | 29.98467 | -95.35584 | 103 ft | 75 kts | 152° |
| 2026-05-05 21:56 | 29.97833 | -95.35197 | 102 ft | 129 kts | 152° |
| 2026-05-05 21:56 | 29.96932 | -95.34658 | 323 ft | 150 kts | 152° |
| 2026-05-05 21:56 | 29.96059 | -95.34047 | 961 ft | 146 kts | 151° |
| 2026-05-05 21:56 | 29.95215 | -95.33401 | 1576 ft | 144 kts | 150° |
| 2026-05-05 21:57 | 29.94354 | -95.32706 | 1966 ft | 162 kts | 149° |
| 2026-05-05 21:57 | 29.93410 | -95.31916 | 2398 ft | 173 kts | 149° |
| 2026-05-05 21:57 | 29.92445 | -95.31069 | 2890 ft | 181 kts | 148° |
| 2026-05-05 21:57 | 29.91456 | -95.30189 | 3527 ft | 174 kts | 148° |
| 2026-05-05 21:58 | 29.90537 | -95.29357 | 4221 ft | 167 kts | 148° |
| 2026-05-05 21:58 | 29.89572 | -95.28491 | 4471 ft | 184 kts | 147° |
| 2026-05-05 21:58 | 29.88622 | -95.27383 | 4611 ft | 210 kts | 129° |
| 2026-05-05 21:58 | 29.87794 | -95.25887 | 4752 ft | 233 kts | 126° |
| 2026-05-05 21:59 | 29.87227 | -95.24029 | 4936 ft | 264 kts | 98° |
| 2026-05-05 21:59 | 29.87498 | -95.21835 | 5189 ft | 292 kts | 70° |
| 2026-05-05 21:59 | 29.88664 | -95.19883 | 5849 ft | 302 kts | 41° |
| 2026-05-05 21:59 | 29.90459 | -95.18675 | 6683 ft | 300 kts | 15° |
| 2026-05-05 22:00 | 29.92517 | -95.18430 | 7413 ft | 297 kts | 348° |
| 2026-05-05 22:00 | 29.94510 | -95.18990 | 8240 ft | 296 kts | 339° |
| 2026-05-05 22:00 | 29.96505 | -95.19642 | 9017 ft | 301 kts | 342° |
| 2026-05-05 22:00 | 29.98569 | -95.20121 | 9790 ft | 305 kts | 347° |
| 2026-05-05 22:01 | 30.00684 | -95.20421 | 10516 ft | 307 kts | 351° |
| 2026-05-05 22:01 | 30.02819 | -95.20609 | 11318 ft | 309 kts | 352° |
| 2026-05-05 22:01 | 30.04972 | -95.20749 | 12050 ft | 311 kts | 352° |
| 2026-05-05 22:01 | 30.07133 | -95.20873 | 12770 ft | 314 kts | 352° |
| 2026-05-05 22:02 | 30.09320 | -95.20998 | 13517 ft | 316 kts | 352° |
| 2026-05-05 22:02 | 30.11527 | -95.21130 | 14179 ft | 319 kts | 351° |
| 2026-05-05 22:02 | 30.13740 | -95.21266 | 14810 ft | 321 kts | 351° |
| 2026-05-05 22:02 | 30.15988 | -95.21408 | 15452 ft | 324 kts | 351° |
| 2026-05-05 22:03 | 30.18254 | -95.21552 | 16093 ft | 327 kts | 350° |
| 2026-05-05 22:03 | 30.20534 | -95.21697 | 16713 ft | 330 kts | 350° |
| 2026-05-05 22:03 | 30.22836 | -95.21843 | 17351 ft | 333 kts | 349° |
| 2026-05-05 22:03 | 30.25157 | -95.21990 | 18002 ft | 335 kts | 349° |
| 2026-05-05 22:04 | 30.27497 | -95.22106 | 18553 ft | 341 kts | 353° |
| 2026-05-05 22:04 | 30.29889 | -95.21829 | 19096 ft | 351 kts | 4° |
| 2026-05-05 22:04 | 30.32269 | -95.21049 | 19638 ft | 360 kts | 12° |
| 2026-05-05 22:04 | 30.34647 | -95.20096 | 20172 ft | 363 kts | 11° |
| 2026-05-05 22:05 | 30.37044 | -95.19153 | 20715 ft | 365 kts | 10° |
| 2026-05-05 22:05 | 30.39458 | -95.18213 | 21254 ft | 368 kts | 10° |
| 2026-05-05 22:05 | 30.41862 | -95.17278 | 21779 ft | 370 kts | 9° |
| 2026-05-05 22:05 | 30.44308 | -95.16312 | 22313 ft | 375 kts | 12° |
| 2026-05-05 22:06 | 30.46710 | -95.15014 | 22805 ft | 386 kts | 19° |
| 2026-05-05 22:06 | 30.49081 | -95.13527 | 23298 ft | 390 kts | 19° |
| 2026-05-05 22:06 | 30.51480 | -95.12037 | 23729 ft | 392 kts | 19° |
| 2026-05-05 22:06 | 30.53887 | -95.10546 | 24148 ft | 394 kts | 18° |
| 2026-05-05 22:07 | 30.56323 | -95.09041 | 24548 ft | 397 kts | 18° |
| 2026-05-05 22:07 | 30.58769 | -95.07529 | 24946 ft | 400 kts | 18° |
| 2026-05-05 22:07 | 30.61231 | -95.05990 | 25329 ft | 404 kts | 19° |
| 2026-05-05 22:07 | 30.63698 | -95.04405 | 25722 ft | 406 kts | 19° |
| 2026-05-05 22:08 | 30.66177 | -95.02799 | 26102 ft | 410 kts | 19° |
| 2026-05-05 22:08 | 30.68676 | -95.01183 | 26466 ft | 412 kts | 19° |
| 2026-05-05 22:08 | 30.71191 | -94.99560 | 26835 ft | 415 kts | 19° |
| 2026-05-05 22:08 | 30.73719 | -94.97930 | 27223 ft | 417 kts | 18° |
| 2026-05-05 22:09 | 30.76263 | -94.96292 | 27580 ft | 419 kts | 18° |
| 2026-05-05 22:09 | 30.78825 | -94.94641 | 27914 ft | 422 kts | 18° |
| 2026-05-05 22:09 | 30.81398 | -94.92983 | 28280 ft | 424 kts | 18° |
| 2026-05-05 22:09 | 30.83990 | -94.91311 | 28571 ft | 429 kts | 18° |
| 2026-05-05 22:10 | 30.86627 | -94.89616 | 28665 ft | 438 kts | 18° |
| 2026-05-05 22:10 | 30.92067 | -94.86110 | 28851 ft | 456 kts | 19° |
| 2026-05-05 22:11 | 30.97712 | -94.82459 | 29045 ft | 472 kts | 19° |
| 2026-05-05 22:11 | 31.00610 | -94.80581 | 29150 ft | 480 kts | 19° |
| 2026-05-05 22:11 | 31.03537 | -94.78680 | 29436 ft | 483 kts | 19° |
| 2026-05-05 22:11 | 31.06481 | -94.76763 | 29793 ft | 485 kts | 19° |
| 2026-05-05 22:12 | 31.09433 | -94.74843 | 30077 ft | 488 kts | 19° |
| 2026-05-05 22:12 | 31.12407 | -94.72909 | 30345 ft | 490 kts | 19° |
| 2026-05-05 22:12 | 31.15393 | -94.70967 | 30617 ft | 493 kts | 19° |
| 2026-05-05 22:12 | 31.18397 | -94.69014 | 30857 ft | 496 kts | 19° |
| 2026-05-05 22:13 | 31.21415 | -94.67048 | 31159 ft | 497 kts | 19° |
| 2026-05-05 22:13 | 31.24435 | -94.65078 | 31499 ft | 497 kts | 19° |
| 2026-05-05 22:13 | 31.27452 | -94.63107 | 31877 ft | 497 kts | 19° |
| 2026-05-05 22:13 | 31.30426 | -94.61165 | 32253 ft | 495 kts | 19° |
| 2026-05-05 22:14 | 31.33473 | -94.59173 | 32604 ft | 495 kts | 19° |
| 2026-05-05 22:14 | 31.36435 | -94.57237 | 32934 ft | 495 kts | 19° |
| 2026-05-05 22:14 | 31.39439 | -94.55273 | 33256 ft | 495 kts | 18° |
| 2026-05-05 22:14 | 31.42439 | -94.53308 | 33622 ft | 493 kts | 18° |
| 2026-05-05 22:15 | 31.45428 | -94.51350 | 33931 ft | 492 kts | 18° |
| 2026-05-05 22:15 | 31.48413 | -94.49392 | 34241 ft | 491 kts | 18° |
| 2026-05-05 22:15 | 31.51377 | -94.47405 | 34554 ft | 491 kts | 19° |
| 2026-05-05 22:15 | 31.54304 | -94.45361 | 34917 ft | 488 kts | 20° |
| 2026-05-05 22:16 | 31.57212 | -94.43312 | 35200 ft | 487 kts | 20° |
| 2026-05-05 22:16 | 31.60117 | -94.41270 | 35449 ft | 486 kts | 19° |
| 2026-05-05 22:16 | 31.63016 | -94.39240 | 35722 ft | 484 kts | 19° |
| 2026-05-05 22:16 | 31.65893 | -94.37227 | 36041 ft | 481 kts | 19° |
| 2026-05-05 22:17 | 31.68767 | -94.35218 | 36289 ft | 480 kts | 19° |
| 2026-05-05 22:17 | 31.71636 | -94.33216 | 36498 ft | 479 kts | 19° |
| 2026-05-05 22:17 | 31.74496 | -94.31218 | 36732 ft | 478 kts | 19° |
| 2026-05-05 22:17 | 31.77345 | -94.29224 | 37024 ft | 475 kts | 19° |
| 2026-05-05 22:18 | 31.80182 | -94.27238 | 37250 ft | 474 kts | 19° |
| 2026-05-05 22:18 | 31.83010 | -94.25257 | 37450 ft | 473 kts | 18° |
| 2026-05-05 22:18 | 31.85833 | -94.23280 | 37633 ft | 472 kts | 18° |
| 2026-05-05 22:18 | 31.88652 | -94.21303 | 37852 ft | 471 kts | 18° |
| 2026-05-05 22:19 | 31.91462 | -94.19330 | 38040 ft | 470 kts | 18° |
| 2026-05-05 22:19 | 31.94264 | -94.17362 | 38217 ft | 469 kts | 18° |
| 2026-05-05 22:19 | 31.97065 | -94.15393 | 38380 ft | 468 kts | 18° |
| 2026-05-05 22:19 | 31.99857 | -94.13428 | 38538 ft | 467 kts | 18° |
| 2026-05-05 22:20 | 32.02647 | -94.11464 | 38646 ft | 467 kts | 18° |
| 2026-05-05 22:20 | 32.08221 | -94.07538 | 38806 ft | 467 kts | 18° |
| 2026-05-05 22:21 | 32.13749 | -94.03634 | 38809 ft | 465 kts | 18° |
| 2026-05-05 22:21 | 32.19319 | -93.99702 | 38810 ft | 469 kts | 18° |
| 2026-05-05 22:22 | 32.24952 | -93.95720 | 38803 ft | 475 kts | 18° |
| 2026-05-05 22:22 | 32.30648 | -93.91683 | 38802 ft | 480 kts | 18° |
| 2026-05-05 22:23 | 32.36397 | -93.87601 | 38797 ft | 485 kts | 18° |
| 2026-05-05 22:23 | 32.42199 | -93.83474 | 38803 ft | 488 kts | 19° |
| 2026-05-05 22:24 | 32.48025 | -93.79320 | 38795 ft | 489 kts | 19° |
| 2026-05-05 22:24 | 32.53852 | -93.75161 | 38802 ft | 489 kts | 19° |
| 2026-05-05 22:25 | 32.59668 | -93.71004 | 38795 ft | 488 kts | 19° |
| 2026-05-05 22:25 | 32.65489 | -93.66842 | 38802 ft | 488 kts | 19° |
| 2026-05-05 22:26 | 32.71296 | -93.62679 | 38799 ft | 488 kts | 19° |
| 2026-05-05 22:26 | 32.77105 | -93.58510 | 38802 ft | 487 kts | 18° |
| 2026-05-05 22:27 | 32.82860 | -93.54373 | 38804 ft | 487 kts | 18° |
| 2026-05-05 22:27 | 32.88686 | -93.50179 | 38808 ft | 486 kts | 18° |
| 2026-05-05 22:28 | 32.94423 | -93.46042 | 38800 ft | 485 kts | 18° |
| 2026-05-05 22:28 | 33.00195 | -93.41878 | 38793 ft | 484 kts | 18° |
| 2026-05-05 22:29 | 33.05992 | -93.37884 | 38783 ft | 480 kts | 16° |
| 2026-05-05 22:29 | 33.11803 | -93.33945 | 38781 ft | 481 kts | 16° |
| 2026-05-05 22:30 | 33.17590 | -93.29985 | 38770 ft | 479 kts | 16° |
| 2026-05-05 22:30 | 33.23378 | -93.26009 | 38775 ft | 480 kts | 16° |
| 2026-05-05 22:31 | 33.29147 | -93.22035 | 38769 ft | 478 kts | 16° |
| 2026-05-05 22:31 | 33.34916 | -93.18059 | 38779 ft | 479 kts | 16° |
| 2026-05-05 22:32 | 33.40670 | -93.14084 | 38777 ft | 477 kts | 16° |
| 2026-05-05 22:32 | 33.46418 | -93.10110 | 38788 ft | 477 kts | 16° |
| 2026-05-05 22:33 | 33.52156 | -93.06135 | 38785 ft | 476 kts | 16° |
| 2026-05-05 22:33 | 33.57889 | -93.02158 | 38788 ft | 476 kts | 16° |
| 2026-05-05 22:34 | 33.63572 | -92.98208 | 38781 ft | 474 kts | 16° |
| 2026-05-05 22:34 | 33.69276 | -92.94238 | 38788 ft | 473 kts | 16° |
| 2026-05-05 22:35 | 33.73998 | -92.90947 | 38785 ft | 472 kts | 15° |
| 2026-05-05 22:35 | 33.80589 | -92.86348 | 38795 ft | 471 kts | 15° |
| 2026-05-05 22:36 | 33.86243 | -92.82395 | 38781 ft | 470 kts | 15° |
| 2026-05-05 22:36 | 33.90976 | -92.79082 | 38783 ft | 470 kts | 15° |
| 2026-05-05 22:37 | 33.96607 | -92.75132 | 38780 ft | 467 kts | 15° |
| 2026-05-05 22:37 | 34.02228 | -92.71188 | 38779 ft | 467 kts | 15° |
| 2026-05-05 22:38 | 34.07793 | -92.67271 | 38779 ft | 465 kts | 15° |
| 2026-05-05 22:38 | 34.13389 | -92.63331 | 38779 ft | 465 kts | 15° |
| 2026-05-05 22:39 | 34.18960 | -92.59399 | 38789 ft | 463 kts | 15° |
| 2026-05-05 22:39 | 34.24518 | -92.55473 | 38785 ft | 463 kts | 15° |
| 2026-05-05 22:40 | 34.30058 | -92.51551 | 38790 ft | 461 kts | 15° |
| 2026-05-05 22:40 | 34.35588 | -92.47634 | 38793 ft | 461 kts | 15° |
| 2026-05-05 22:41 | 34.41101 | -92.43719 | 38793 ft | 458 kts | 15° |
| 2026-05-05 22:41 | 34.46603 | -92.39810 | 38794 ft | 458 kts | 15° |
| 2026-05-05 22:42 | 34.52081 | -92.35907 | 38794 ft | 456 kts | 15° |
| 2026-05-05 22:42 | 34.57555 | -92.32005 | 38790 ft | 456 kts | 15° |
| 2026-05-05 22:43 | 34.62975 | -92.28132 | 38809 ft | 454 kts | 15° |
| 2026-05-05 22:43 | 34.68421 | -92.24239 | 38806 ft | 455 kts | 15° |
| 2026-05-05 22:44 | 34.73860 | -92.20341 | 38808 ft | 453 kts | 15° |
| 2026-05-05 22:44 | 34.79293 | -92.16464 | 38805 ft | 449 kts | 12° |
| 2026-05-05 22:44 | 34.82064 | -92.14867 | 38803 ft | 433 kts | 6° |
| 2026-05-05 22:45 | 34.84869 | -92.13686 | 38797 ft | 423 kts | 2° |
| 2026-05-05 22:45 | 34.90496 | -92.11511 | 38799 ft | 424 kts | 2° |
| 2026-05-05 22:46 | 34.96108 | -92.09308 | 38794 ft | 424 kts | 2° |
| 2026-05-05 22:46 | 35.01725 | -92.07106 | 38797 ft | 424 kts | 2° |
| 2026-05-05 22:47 | 35.07181 | -92.04961 | 38794 ft | 423 kts | 2° |
| 2026-05-05 22:47 | 35.12786 | -92.02761 | 38792 ft | 424 kts | 2° |
| 2026-05-05 22:48 | 35.18385 | -92.00556 | 38801 ft | 422 kts | 2° |
| 2026-05-05 22:48 | 35.23975 | -91.98354 | 38798 ft | 423 kts | 2° |
| 2026-05-05 22:49 | 35.29561 | -91.96147 | 38798 ft | 422 kts | 2° |
| 2026-05-05 22:49 | 35.35145 | -91.93939 | 38798 ft | 422 kts | 2° |
| 2026-05-05 22:50 | 35.40681 | -91.91747 | 38793 ft | 421 kts | 2° |
| 2026-05-05 22:50 | 35.46261 | -91.89538 | 38792 ft | 422 kts | 1° |
| 2026-05-05 22:51 | 35.51826 | -91.87326 | 38794 ft | 420 kts | 1° |
| 2026-05-05 22:51 | 35.57394 | -91.85115 | 38793 ft | 421 kts | 1° |
| 2026-05-05 22:52 | 35.62949 | -91.82901 | 38797 ft | 420 kts | 1° |
| 2026-05-05 22:52 | 35.68511 | -91.80684 | 38802 ft | 420 kts | 1° |
| 2026-05-05 22:53 | 35.74070 | -91.78463 | 38806 ft | 420 kts | 1° |
| 2026-05-05 22:53 | 35.79631 | -91.76241 | 38805 ft | 421 kts | 1° |
| 2026-05-05 22:54 | 35.85186 | -91.74014 | 38798 ft | 419 kts | 1° |
| 2026-05-05 22:54 | 35.90751 | -91.71784 | 38805 ft | 421 kts | 1° |
| 2026-05-05 22:55 | 35.96310 | -91.69548 | 38789 ft | 420 kts | 1° |
| 2026-05-05 22:55 | 36.01875 | -91.67313 | 38791 ft | 422 kts | 2° |
| 2026-05-05 22:56 | 36.07450 | -91.65068 | 38780 ft | 422 kts | 2° |
| 2026-05-05 22:56 | 36.13042 | -91.62815 | 38786 ft | 423 kts | 2° |
| 2026-05-05 22:57 | 36.18635 | -91.60553 | 38779 ft | 423 kts | 2° |
| 2026-05-05 22:57 | 36.24255 | -91.58282 | 38789 ft | 425 kts | 3° |
| 2026-05-05 22:58 | 36.29876 | -91.56002 | 38783 ft | 425 kts | 3° |
| 2026-05-05 22:58 | 36.35507 | -91.53719 | 38794 ft | 427 kts | 4° |
| 2026-05-05 22:59 | 36.41149 | -91.51425 | 38792 ft | 427 kts | 4° |
| 2026-05-05 22:59 | 36.46802 | -91.49122 | 38799 ft | 428 kts | 4° |
| 2026-05-05 23:00 | 36.55285 | -91.45660 | 38799 ft | 428 kts | 4° |
| 2026-05-05 23:00 | 36.60912 | -91.43360 | 38804 ft | 428 kts | 4° |
| 2026-05-05 23:01 | 36.66618 | -91.41024 | 38805 ft | 429 kts | 5° |
| 2026-05-05 23:01 | 36.72294 | -91.38695 | 38808 ft | 429 kts | 5° |
| 2026-05-05 23:02 | 36.77969 | -91.36365 | 38818 ft | 431 kts | 5° |
| 2026-05-05 23:02 | 36.83627 | -91.34039 | 38821 ft | 432 kts | 5° |
| 2026-05-05 23:03 | 36.89343 | -91.31683 | 38834 ft | 433 kts | 5° |
| 2026-05-05 23:03 | 36.95066 | -91.29320 | 38831 ft | 434 kts | 5° |
| 2026-05-05 23:04 | 37.00801 | -91.26949 | 38838 ft | 434 kts | 5° |
| 2026-05-05 23:04 | 37.06546 | -91.24571 | 38845 ft | 436 kts | 5° |
| 2026-05-05 23:05 | 37.12302 | -91.22184 | 38847 ft | 436 kts | 5° |
| 2026-05-05 23:05 | 37.18069 | -91.19787 | 38853 ft | 438 kts | 5° |
| 2026-05-05 23:06 | 37.23853 | -91.17380 | 38860 ft | 438 kts | 5° |
| 2026-05-05 23:06 | 37.29638 | -91.14969 | 38865 ft | 439 kts | 5° |
| 2026-05-05 23:07 | 37.35443 | -91.12546 | 38865 ft | 440 kts | 5° |
| 2026-05-05 23:07 | 37.41239 | -91.10121 | 38873 ft | 440 kts | 5° |
| 2026-05-05 23:08 | 37.47001 | -91.07708 | 38879 ft | 440 kts | 5° |
| 2026-05-05 23:08 | 37.52860 | -91.05251 | 38885 ft | 441 kts | 5° |
| 2026-05-05 23:09 | 37.58670 | -91.02810 | 38891 ft | 440 kts | 5° |
| 2026-05-05 23:09 | 37.64487 | -91.00362 | 38894 ft | 441 kts | 6° |
| 2026-05-05 23:10 | 37.70315 | -90.97906 | 38899 ft | 441 kts | 6° |
| 2026-05-05 23:10 | 37.76143 | -90.95445 | 38906 ft | 442 kts | 6° |
| 2026-05-05 23:11 | 37.81946 | -90.92991 | 38910 ft | 443 kts | 6° |
| 2026-05-05 23:11 | 37.87794 | -90.90514 | 38912 ft | 444 kts | 6° |
| 2026-05-05 23:12 | 37.93657 | -90.88027 | 38917 ft | 445 kts | 6° |
| 2026-05-05 23:12 | 37.99533 | -90.85529 | 38921 ft | 447 kts | 6° |
| 2026-05-05 23:13 | 38.05431 | -90.83018 | 38919 ft | 447 kts | 7° |
| 2026-05-05 23:13 | 38.11339 | -90.80498 | 38921 ft | 449 kts | 7° |
| 2026-05-05 23:14 | 38.17269 | -90.77965 | 38922 ft | 450 kts | 7° |
| 2026-05-05 23:14 | 38.23203 | -90.75425 | 38917 ft | 451 kts | 7° |
| 2026-05-05 23:15 | 38.29165 | -90.72870 | 38911 ft | 453 kts | 7° |
| 2026-05-05 23:15 | 38.35145 | -90.70302 | 38916 ft | 455 kts | 7° |
| 2026-05-05 23:16 | 38.41145 | -90.67720 | 38921 ft | 456 kts | 8° |
| 2026-05-05 23:16 | 38.47157 | -90.65129 | 38931 ft | 457 kts | 8° |
| 2026-05-05 23:17 | 38.53192 | -90.62524 | 38931 ft | 458 kts | 8° |
| 2026-05-05 23:17 | 38.59241 | -90.59908 | 38941 ft | 460 kts | 8° |
| 2026-05-05 23:18 | 38.65306 | -90.57279 | 38936 ft | 460 kts | 8° |
| 2026-05-05 23:18 | 38.68337 | -90.55939 | 38742 ft | 459 kts | 4° |
| 2026-05-05 23:18 | 38.71345 | -90.54613 | 38925 ft | 457 kts | 4° |
| 2026-05-05 23:19 | 38.77405 | -90.51987 | 38926 ft | 463 kts | 4° |
| 2026-05-05 23:19 | 38.83546 | -90.49207 | 38928 ft | 481 kts | 11° |
| 2026-05-05 23:20 | 38.86532 | -90.47060 | 38926 ft | 505 kts | 23° |
| 2026-05-05 23:20 | 38.89291 | -90.44121 | 38928 ft | 527 kts | 35° |
| 2026-05-05 23:20 | 38.94423 | -90.37387 | 38928 ft | 534 kts | 35° |
| 2026-05-05 23:21 | 38.99663 | -90.30552 | 38924 ft | 539 kts | 35° |
| 2026-05-05 23:21 | 39.04944 | -90.23659 | 38928 ft | 542 kts | 35° |
| 2026-05-05 23:22 | 39.10226 | -90.16745 | 38911 ft | 541 kts | 35° |
| 2026-05-05 23:22 | 39.15430 | -90.09921 | 38912 ft | 541 kts | 35° |
| 2026-05-05 23:23 | 39.20698 | -90.02999 | 38915 ft | 541 kts | 35° |
| 2026-05-05 23:23 | 39.25954 | -89.96075 | 38919 ft | 540 kts | 35° |
| 2026-05-05 23:24 | 39.31207 | -89.89139 | 38919 ft | 540 kts | 35° |
| 2026-05-05 23:24 | 39.36446 | -89.82206 | 38918 ft | 539 kts | 35° |
| 2026-05-05 23:25 | 39.40796 | -89.76438 | 38918 ft | 539 kts | 35° |
| 2026-05-05 23:25 | 39.46027 | -89.69488 | 38917 ft | 539 kts | 35° |
| 2026-05-05 23:26 | 39.51247 | -89.62533 | 38915 ft | 538 kts | 35° |
| 2026-05-05 23:26 | 39.56458 | -89.55574 | 38913 ft | 538 kts | 35° |
| 2026-05-05 23:27 | 39.61666 | -89.48605 | 38910 ft | 538 kts | 35° |
| 2026-05-05 23:27 | 39.66859 | -89.41638 | 38910 ft | 537 kts | 35° |
| 2026-05-05 23:28 | 39.72051 | -89.34657 | 38912 ft | 537 kts | 35° |
| 2026-05-05 23:28 | 39.77236 | -89.27670 | 38918 ft | 537 kts | 35° |
| 2026-05-05 23:29 | 39.82413 | -89.20676 | 38908 ft | 537 kts | 35° |
| 2026-05-05 23:29 | 39.87585 | -89.13672 | 38907 ft | 536 kts | 35° |
| 2026-05-05 23:30 | 39.92749 | -89.06665 | 38909 ft | 536 kts | 35° |
| 2026-05-05 23:30 | 39.97907 | -88.99650 | 38902 ft | 536 kts | 35° |
| 2026-05-05 23:31 | 40.03061 | -88.92624 | 38905 ft | 536 kts | 36° |
| 2026-05-05 23:31 | 40.08210 | -88.85588 | 38908 ft | 536 kts | 36° |
| 2026-05-05 23:32 | 40.13339 | -88.78562 | 38913 ft | 535 kts | 36° |
| 2026-05-05 23:32 | 40.18170 | -88.71928 | 38914 ft | 535 kts | 36° |
| 2026-05-05 23:33 | 40.23301 | -88.64869 | 38915 ft | 535 kts | 36° |
| 2026-05-05 23:33 | 40.28364 | -88.57887 | 38911 ft | 535 kts | 36° |
| 2026-05-05 23:34 | 40.33406 | -88.50916 | 38907 ft | 535 kts | 36° |
| 2026-05-05 23:34 | 40.38381 | -88.44022 | 38903 ft | 535 kts | 36° |
| 2026-05-05 23:35 | 40.43448 | -88.36982 | 38904 ft | 534 kts | 36° |
| 2026-05-05 23:35 | 40.48549 | -88.29881 | 38903 ft | 534 kts | 36° |
| 2026-05-05 23:36 | 40.53641 | -88.22776 | 38906 ft | 534 kts | 36° |
| 2026-05-05 23:36 | 40.58601 | -88.15472 | 38900 ft | 545 kts | 44° |
| 2026-05-05 23:37 | 40.62832 | -88.07081 | 38905 ft | 550 kts | 47° |
| 2026-05-05 23:37 | 40.66948 | -87.98846 | 38907 ft | 550 kts | 47° |
| 2026-05-05 23:38 | 40.71211 | -87.90292 | 38903 ft | 550 kts | 47° |
| 2026-05-05 23:38 | 40.75394 | -87.81858 | 38903 ft | 550 kts | 47° |
| 2026-05-05 23:39 | 40.79563 | -87.73429 | 38894 ft | 549 kts | 47° |
| 2026-05-05 23:39 | 40.83734 | -87.64972 | 38898 ft | 549 kts | 47° |
| 2026-05-05 23:40 | 40.87891 | -87.56520 | 38897 ft | 549 kts | 47° |
| 2026-05-05 23:40 | 40.92048 | -87.48045 | 38895 ft | 549 kts | 47° |
| 2026-05-05 23:41 | 40.96169 | -87.39619 | 38895 ft | 549 kts | 47° |
| 2026-05-05 23:41 | 41.00308 | -87.31135 | 38889 ft | 549 kts | 47° |
| 2026-05-05 23:42 | 41.04443 | -87.22635 | 38889 ft | 549 kts | 48° |
| 2026-05-05 23:42 | 41.08578 | -87.14113 | 38890 ft | 549 kts | 48° |
| 2026-05-05 23:43 | 41.12699 | -87.05594 | 38894 ft | 549 kts | 48° |
| 2026-05-05 23:43 | 41.16812 | -86.97068 | 38899 ft | 549 kts | 48° |
| 2026-05-05 23:44 | 41.20921 | -86.88527 | 38884 ft | 549 kts | 48° |
| 2026-05-05 23:44 | 41.25022 | -86.79978 | 38874 ft | 549 kts | 48° |
| 2026-05-05 23:45 | 41.29102 | -86.71443 | 38846 ft | 540 kts | 48° |
| 2026-05-05 23:45 | 41.31251 | -86.67474 | 38697 ft | 516 kts | 37° |
| 2026-05-05 23:45 | 41.33745 | -86.64218 | 38150 ft | 492 kts | 24° |
| 2026-05-05 23:46 | 41.36529 | -86.61762 | 37311 ft | 470 kts | 12° |
| 2026-05-05 23:46 | 41.39461 | -86.59918 | 36488 ft | 465 kts | 9° |
| 2026-05-05 23:46 | 41.42409 | -86.58157 | 35906 ft | 464 kts | 9° |
| 2026-05-05 23:46 | 41.45334 | -86.56370 | 35390 ft | 462 kts | 10° |
| 2026-05-05 23:47 | 41.48239 | -86.54544 | 34874 ft | 461 kts | 11° |
| 2026-05-05 23:47 | 41.51125 | -86.52696 | 34343 ft | 459 kts | 11° |
| 2026-05-05 23:47 | 41.53994 | -86.50840 | 33843 ft | 457 kts | 11° |
| 2026-05-05 23:47 | 41.56851 | -86.48984 | 33260 ft | 456 kts | 12° |
| 2026-05-05 23:48 | 41.59693 | -86.47137 | 32725 ft | 453 kts | 12° |
| 2026-05-05 23:48 | 41.62523 | -86.45296 | 32170 ft | 452 kts | 12° |
| 2026-05-05 23:48 | 41.64849 | -86.43784 | 31721 ft | 450 kts | 13° |
| 2026-05-05 23:48 | 41.67624 | -86.41980 | 31185 ft | 449 kts | 13° |
| 2026-05-05 23:49 | 41.70465 | -86.40131 | 30652 ft | 448 kts | 13° |
| 2026-05-05 23:49 | 41.73259 | -86.38307 | 30149 ft | 446 kts | 14° |
| 2026-05-05 23:49 | 41.76007 | -86.36510 | 29621 ft | 444 kts | 14° |
| 2026-05-05 23:49 | 41.78810 | -86.34672 | 29117 ft | 441 kts | 15° |
| 2026-05-05 23:50 | 41.81517 | -86.32894 | 28627 ft | 437 kts | 15° |
| 2026-05-05 23:50 | 41.84240 | -86.31107 | 28110 ft | 435 kts | 15° |
| 2026-05-05 23:50 | 41.86968 | -86.29317 | 27349 ft | 440 kts | 17° |
| 2026-05-05 23:50 | 41.89608 | -86.27106 | 26515 ft | 456 kts | 28° |
| 2026-05-05 23:51 | 41.92165 | -86.24517 | 25715 ft | 464 kts | 31° |
| 2026-05-05 23:51 | 41.94727 | -86.21834 | 24910 ft | 468 kts | 32° |
| 2026-05-05 23:51 | 41.97317 | -86.19156 | 24165 ft | 471 kts | 31° |
| 2026-05-05 23:51 | 41.99924 | -86.16509 | 23626 ft | 468 kts | 31° |
| 2026-05-05 23:52 | 42.02520 | -86.13902 | 23059 ft | 463 kts | 31° |
| 2026-05-05 23:52 | 42.05096 | -86.11331 | 22476 ft | 459 kts | 31° |
| 2026-05-05 23:52 | 42.07652 | -86.08785 | 21927 ft | 455 kts | 31° |
| 2026-05-05 23:52 | 42.10183 | -86.06264 | 21364 ft | 451 kts | 31° |
| 2026-05-05 23:53 | 42.12691 | -86.03765 | 20859 ft | 446 kts | 31° |
| 2026-05-05 23:53 | 42.15149 | -86.01308 | 20624 ft | 434 kts | 31° |
| 2026-05-05 23:53 | 42.17553 | -85.98902 | 20202 ft | 428 kts | 31° |
| 2026-05-05 23:53 | 42.19933 | -85.96520 | 19729 ft | 424 kts | 31° |
| 2026-05-05 23:54 | 42.22291 | -85.94158 | 19267 ft | 420 kts | 31° |
| 2026-05-05 23:54 | 42.24625 | -85.91817 | 18837 ft | 416 kts | 31° |
| 2026-05-05 23:54 | 42.26936 | -85.89496 | 18399 ft | 412 kts | 30° |
| 2026-05-05 23:54 | 42.29225 | -85.87195 | 17857 ft | 409 kts | 30° |
| 2026-05-05 23:55 | 42.31523 | -85.84892 | 17106 ft | 412 kts | 31° |
| 2026-05-05 23:55 | 42.33820 | -85.82587 | 16559 ft | 410 kts | 31° |
| 2026-05-05 23:55 | 42.36093 | -85.80299 | 16052 ft | 405 kts | 31° |
| 2026-05-05 23:55 | 42.38347 | -85.78027 | 15558 ft | 402 kts | 31° |
| 2026-05-05 23:56 | 42.40569 | -85.75786 | 15052 ft | 398 kts | 32° |
| 2026-05-05 23:56 | 42.42782 | -85.73554 | 14569 ft | 395 kts | 32° |
| 2026-05-05 23:56 | 42.44973 | -85.71342 | 14088 ft | 391 kts | 32° |
| 2026-05-05 23:56 | 42.47146 | -85.69146 | 13596 ft | 389 kts | 32° |
| 2026-05-05 23:57 | 42.49124 | -85.67144 | 13102 ft | 387 kts | 32° |
| 2026-05-05 23:57 | 42.51272 | -85.64967 | 12573 ft | 384 kts | 33° |
| 2026-05-05 23:57 | 42.53402 | -85.62808 | 12061 ft | 381 kts | 33° |
| 2026-05-05 23:57 | 42.55521 | -85.60658 | 11540 ft | 379 kts | 33° |
| 2026-05-05 23:58 | 42.57627 | -85.58521 | 11041 ft | 377 kts | 33° |
| 2026-05-05 23:58 | 42.59643 | -85.56471 | 10691 ft | 370 kts | 33° |
| 2026-05-05 23:58 | 42.61671 | -85.54404 | 10311 ft | 357 kts | 33° |
| 2026-05-05 23:58 | 42.63601 | -85.52433 | 10117 ft | 338 kts | 33° |
| 2026-05-05 23:59 | 42.65429 | -85.50565 | 9944 ft | 320 kts | 32° |
| 2026-05-05 23:59 | 42.67178 | -85.48780 | 9536 ft | 311 kts | 32° |
| 2026-05-05 23:59 | 42.68914 | -85.47016 | 8896 ft | 312 kts | 32° |
| 2026-05-05 23:59 | 42.70645 | -85.45255 | 8316 ft | 309 kts | 32° |
| 2026-05-06 00:00 | 42.72351 | -85.43514 | 7762 ft | 305 kts | 32° |
| 2026-05-06 00:00 | 42.74029 | -85.41798 | 7224 ft | 300 kts | 32° |
| 2026-05-06 00:00 | 42.75690 | -85.40098 | 6698 ft | 295 kts | 32° |
| 2026-05-06 00:00 | 42.77313 | -85.38435 | 6184 ft | 289 kts | 32° |
| 2026-05-06 00:01 | 42.78905 | -85.36804 | 5643 ft | 283 kts | 32° |
| 2026-05-06 00:01 | 42.80465 | -85.35207 | 5120 ft | 278 kts | 33° |
| 2026-05-06 00:01 | 42.81994 | -85.33642 | 4614 ft | 272 kts | 33° |
| 2026-05-06 00:01 | 42.83495 | -85.32103 | 4106 ft | 268 kts | 33° |
| 2026-05-06 00:02 | 42.84971 | -85.30592 | 3617 ft | 263 kts | 32° |
| 2026-05-06 00:02 | 42.86592 | -85.29615 | 3142 ft | 251 kts | 5° |
| 2026-05-06 00:02 | 42.88255 | -85.29857 | 2865 ft | 236 kts | 335° |
| 2026-05-06 00:02 | 42.89492 | -85.31182 | 2741 ft | 222 kts | 303° |
| 2026-05-06 00:03 | 42.89979 | -85.33081 | 2706 ft | 207 kts | 275° |
| 2026-05-06 00:03 | 42.89836 | -85.34947 | 2729 ft | 191 kts | 258° |
| 2026-05-06 00:03 | 42.89584 | -85.36594 | 2702 ft | 163 kts | 262° |
| 2026-05-06 00:03 | 42.89425 | -85.38022 | 2619 ft | 145 kts | 264° |
| 2026-05-06 00:04 | 42.89295 | -85.39340 | 2412 ft | 135 kts | 265° |
| 2026-05-06 00:04 | 42.89185 | -85.40596 | 2228 ft | 137 kts | 264° |
| 2026-05-06 00:04 | 42.89029 | -85.41928 | 2154 ft | 147 kts | 262° |
| 2026-05-06 00:04 | 42.88843 | -85.43330 | 1982 ft | 149 kts | 262° |
| 2026-05-06 00:05 | 42.88580 | -85.46102 | 1481 ft | 149 kts | 264° |
| 2026-05-06 00:05 | 42.88412 | -85.47493 | 1267 ft | 148 kts | 263° |
| 2026-05-06 00:05 | 42.88262 | -85.48860 | 1079 ft | 147 kts | 263° |
| 2026-05-06 00:06 | 42.88107 | -85.50200 | 873 ft | 139 kts | 263° |
| 2026-05-06 00:06 | 42.87976 | -85.51419 | 796 ft | 119 kts | 262° |
| 2026-05-06 00:06 | 42.87879 | -85.52340 | 797 ft | 75 kts | 261° |
| 2026-05-06 00:06 | 42.87821 | -85.52843 | 798 ft | 25 kts | 264° |
| 2026-05-06 00:07 | 42.87918 | -85.52940 | 796 ft | 22 kts | 354° |
| 2026-05-06 00:07 | 42.88087 | -85.52971 | 795 ft | 19 kts | 351° |
| 2026-05-06 00:07 | 42.88161 | -85.52987 | 795 ft | 13 kts | 352° |
| 2026-05-06 00:07 | 42.88211 | -85.52912 | 795 ft | 13 kts | 72° |
| 2026-05-06 00:08 | 42.88244 | -85.52778 | 795 ft | 16 kts | 49° |
| 2026-05-06 00:08 | 42.88345 | -85.52770 | 795 ft | 16 kts | 331° |
| 2026-05-06 00:08 | 42.88379 | -85.52868 | 795 ft | 0 kts | 271° |